Cedar Bluff, Iowa
Current Conditions -  °F | °C
As of 1:52 AM on Saturday 29 Nov 2014 (Local Time) from KIOW Reporting Station
Clear Clear  
Wind Chill: 30°   Ceiling: Unl
Heat Index: 30°   Visibility: 7mi
Dew Point: 28°   Wind: 3mph
Humidity: 92%   Direction: 130°SE
Pressure: 29.7"   Gusts: NA
Location:  41.7563°N, 91.1443°W
Report Text: KIOW 290752Z AUTO 13003KT 7SM CLR M01/M02 A2970 RMK AO2 SLP063 T10111022
Loading
Personal Weather Stations






























Interactive Weather Map New forecast layout! Learn more

10-Day Weather Forecast

Advertisements
Track Severe Weather on mobile